Latest Weather Observations for Esperance Harbour

IDW60801

Issued at 11:02 pm WST Monday 27 April 2015 (issued every 30 minutes, with the page automatically refreshed every 10 minutes)

About weather observations | Map of weather stations | Latest weather observations for WA | Other Formats
Station Details ID: 109504 Name: ESPERANCE NTC AWS Lat: -33.87 Lon: 121.90 Height: 0.0 m
Data from the previous 72 hours. | See also: Recent months for locations in Western Australia
Date/Time
WST
Temp
°C
App
Temp
°C
Dew
Point
Rel
Hum
%
Delta-T
°C
Wind Press
QNH
hPa
Press
MSL
hPa
Rain
since 9 am
mm
Dir
 
Spd
km/h
Gust
km/h
Spd
kts
Gust
kts
27/11:00pm 14.6 - - - - - - - - - 1030.3 1030.2 -
27/10:30pm 14.8 - - - - - - - - - 1030.4 1030.3 -
27/10:00pm 15.2 - - - - - - - - - 1030.2 1030.1 -
27/09:30pm 15.8 - - - - - - - - - 1030.2 1030.1 -
27/09:00pm 16.1 - - - - - - - - - 1030.1 1030.0 -
27/08:30pm 16.4 - - - - - - - - - 1029.9 1029.8 -
27/08:00pm 16.8 - - - - - - - - - 1029.7 1029.6 -
27/07:30pm 17.5 - - - - - - - - - 1029.6 1029.5 -
27/07:00pm 17.6 - - - - - - - - - 1029.4 1029.3 -
27/06:30pm 17.8 - - - - - - - - - 1029.2 1029.1 -
27/06:00pm 18.1 - - - - - - - - - 1028.9 1028.8 -
27/05:30pm 18.2 - - - - - - - - - 1028.9 1028.8 -
27/05:00pm 18.6 - - - - - - - - - 1028.6 1028.5 -
27/04:30pm 19.0 - - - - - - - - - 1028.7 1028.6 -
27/04:00pm 19.2 - - - - - - - - - 1028.6 1028.5 -
27/03:30pm 19.0 - - - - - - - - - 1028.7 1028.6 -
27/03:00pm 19.4 - - - - - - - - - 1028.5 1028.4 -
27/02:30pm 19.5 - - - - - - - - - 1028.4 1028.3 -
27/02:00pm 20.5 - - - - - - - - - 1028.2 1028.1 -
27/01:30pm 19.7 - - - - - - - - - 1028.4 1028.3 -
27/01:00pm 20.1 - - - - - - - - - 1028.5 1028.4 -
27/12:30pm 20.1 - - - - - - - - - 1029.0 1028.9 -
27/12:00pm 19.7 - - - - - - - - - 1029.5 1029.4 -
27/11:30am 19.0 - - - - - - - - - 1030.0 1029.9 -
27/11:00am 18.3 - - - - - - - - - 1030.5 1030.4 -
27/10:30am 18.0 - - - - - - - - - 1030.7 1030.6 -
27/10:00am 17.4 - - - - - - - - - 1030.8 1030.7 -
27/09:30am 16.9 - - - - - - - - - 1030.9 1030.8 -
27/09:00am 16.1 - - - - - - - - - 1031.0 1030.9 -
27/08:30am 15.0 - - - - - - - - - 1030.9 1030.8 -
27/08:00am 14.3 - - - - - - - - - 1030.9 1030.8 -
27/07:30am 13.9 - - - - - - - - - 1030.7 1030.6 -
27/07:00am 13.6 - - - - - - - - - 1030.3 1030.2 -
27/06:30am 14.3 - - - - - - - - - 1030.0 1029.9 -
27/06:00am 14.5 - - - - - - - - - 1029.9 1029.8 -
27/05:30am 15.0 - - - - - - - - - 1030.0 1029.9 -
27/05:00am 15.1 - - - - - - - - - 1029.6 1029.5 -
27/04:30am 15.4 - - - - - - - - - 1029.7 1029.6 -
27/04:00am 15.3 - - - - - - - - - 1029.4 1029.3 -
27/03:30am 15.5 - - - - - - - - - 1029.2 1029.1 -
27/03:00am 15.4 - - - - - - - - - 1029.1 1029.0 -
27/02:30am 15.5 - - - - - - - - - 1029.2 1029.1 -
27/02:00am 15.4 - - - - - - - - - 1029.1 1029.0 -
27/01:30am 15.1 - - - - - - - - - 1029.2 1029.1 -
27/01:00am 15.5 - - - - - - - - - 1029.4 1029.3 -
27/12:30am 15.4 - - - - - - - - - 1029.4 1029.3 -
27/12:00am 15.3 - - - - - - - - - 1029.7 1029.6 -
 
Date/Time
WST
Temp
°C
App
Temp
°C
Dew
Point
Rel
Hum
%
Delta-T
°C
Wind Press
QNH
hPa
Press
MSL
hPa
Rain
since 9 am
mm
Dir
 
Spd
km/h
Gust
km/h
Spd
kts
Gust
kts
26/11:30pm 15.4 - - - - - - - - - 1029.7 1029.6 -
26/11:00pm 15.7 - - - - - - - - - 1029.4 1029.3 -
26/10:30pm 15.5 - - - - - - - - - 1029.5 1029.4 -
26/10:00pm 15.4 - - - - - - - - - 1029.8 1029.7 -
26/09:30pm 15.6 - - - - - - - - - 1029.9 1029.8 -
26/09:00pm 15.6 - - - - - - - - - 1029.9 1029.8 -
26/08:30pm 16.0 - - - - - - - - - 1029.7 1029.6 -
26/08:00pm 16.1 - - - - - - - - - 1029.5 1029.4 -
26/07:30pm 16.2 - - - - - - - - - 1029.3 1029.2 -
26/07:00pm 16.7 - - - - - - - - - 1029.0 1028.9 -
26/06:30pm 16.8 - - - - - - - - - 1028.9 1028.8 -
26/06:00pm 16.9 - - - - - - - - - 1028.6 1028.5 -
26/05:30pm 17.2 - - - - - - - - - 1028.4 1028.3 -
26/05:00pm 17.4 - - - - - - - - - 1028.3 1028.2 -
26/04:30pm 17.5 - - - - - - - - - 1028.3 1028.2 -
26/04:00pm 17.6 - - - - - - - - - 1028.2 1028.1 -
26/03:30pm 17.6 - - - - - - - - - 1028.2 1028.1 -
26/03:00pm 17.8 - - - - - - - - - 1028.1 1028.0 -
26/02:30pm 17.9 - - - - - - - - - 1027.9 1027.8 -
26/02:00pm 17.5 - - - - - - - - - 1027.9 1027.8 -
26/01:30pm 17.6 - - - - - - - - - 1028.1 1028.0 -
26/01:00pm 17.3 - - - - - - - - - 1028.0 1027.9 -
26/12:30pm 17.8 - - - - - - - - - 1028.2 1028.1 -
26/12:00pm 16.8 - - - - - - - - - 1028.6 1028.5 -
26/11:30am 17.1 - - - - - - - - - 1029.0 1028.9 -
26/11:00am 16.7 - - - - - - - - - 1029.4 1029.3 -
26/10:30am 16.0 - - - - - - - - - 1029.6 1029.5 -
26/10:00am 15.0 - - - - - - - - - 1029.9 1029.8 -
26/09:30am 14.1 - - - - - - - - - 1030.0 1029.9 -
26/09:00am 13.2 - - - - - - - - - 1030.0 1029.9 -
26/08:30am 12.1 - - - - - - - - - 1030.0 1029.9 -
26/08:00am 10.8 - - - - - - - - - 1029.9 1029.8 -
26/07:30am 9.7 - - - - - - - - - 1029.7 1029.6 -
26/07:00am 9.7 - - - - - - - - - 1029.4 1029.3 -
26/06:30am 9.9 - - - - - - - - - 1029.2 1029.1 -
26/06:00am 10.3 - - - - - - - - - 1029.0 1028.9 -
26/05:30am 10.0 - - - - - - - - - 1029.0 1028.9 -
26/05:00am 9.9 - - - - - - - - - 1028.8 1028.7 -
26/04:30am 9.9 - - - - - - - - - 1028.7 1028.6 -
26/04:00am 10.4 - - - - - - - - - 1028.4 1028.3 -
26/03:30am 10.7 - - - - - - - - - 1028.2 1028.1 -
26/03:00am 10.6 - - - - - - - - - 1028.2 1028.1 -
26/02:30am 11.2 - - - - - - - - - 1028.4 1028.3 -
26/02:00am 11.7 - - - - - - - - - 1028.4 1028.3 -
26/01:30am 11.6 - - - - - - - - - 1028.3 1028.2 -
26/01:00am 12.5 - - - - - - - - - 1028.4 1028.3 -
26/12:30am 13.6 - - - - - - - - - 1028.2 1028.1 -
26/12:00am 12.8 - - - - - - - - - 1028.2 1028.1 -
 
Date/Time
WST
Temp
°C
App
Temp
°C
Dew
Point
Rel
Hum
%
Delta-T
°C
Wind Press
QNH
hPa
Press
MSL
hPa
Rain
since 9 am
mm
Dir
 
Spd
km/h
Gust
km/h
Spd
kts
Gust
kts
25/11:30pm 13.1 - - - - - - - - - 1028.5 1028.4 -
25/11:00pm 13.6 - - - - - - - - - 1028.6 1028.5 -
25/10:30pm 13.5 - - - - - - - - - 1028.7 1028.6 -
25/10:00pm 14.0 - - - - - - - - - 1028.8 1028.7 -
25/09:30pm 14.7 - - - - - - - - - 1028.9 1028.8 -
25/09:00pm 15.6 - - - - - - - - - 1028.8 1028.7 -
25/08:30pm 16.3 - - - - - - - - - 1028.6 1028.5 -
25/08:00pm 16.4 - - - - - - - - - 1028.4 1028.3 -
25/07:30pm 16.7 - - - - - - - - - 1028.4 1028.3 -
25/07:00pm 16.8 - - - - - - - - - 1028.1 1028.0 -
25/06:30pm 17.0 - - - - - - - - - 1028.0 1027.9 -
25/06:00pm 16.8 - - - - - - - - - 1027.7 1027.6 -
25/05:30pm 16.8 - - - - - - - - - 1027.5 1027.4 -
25/05:00pm 16.8 - - - - - - - - - 1027.4 1027.3 -
25/04:30pm 17.0 - - - - - - - - - 1027.3 1027.2 -
25/04:00pm 17.3 - - - - - - - - - 1027.3 1027.2 -
25/03:30pm 17.0 - - - - - - - - - 1027.3 1027.2 -
25/03:00pm 17.8 - - - - - - - - - 1027.2 1027.1 -
25/02:30pm 17.4 - - - - - - - - - 1027.2 1027.1 -
25/02:00pm 17.6 - - - - - - - - - 1027.2 1027.1 -
25/01:30pm 17.4 - - - - - - - - - 1027.2 1027.1 -
25/01:00pm 16.8 - - - - - - - - - 1027.4 1027.3 -
25/12:30pm 16.5 - - - - - - - - - 1027.6 1027.5 -
25/12:00pm 16.5 - - - - - - - - - 1028.0 1027.9 -
25/11:30am 15.9 - - - - - - - - - 1028.1 1028.0 -
25/11:00am 15.7 - - - - - - - - - 1028.7 1028.6 -
25/10:30am 15.0 - - - - - - - - - 1028.8 1028.7 -
25/10:00am 14.8 - - - - - - - - - 1028.8 1028.7 -
25/09:30am 13.9 - - - - - - - - - 1028.8 1028.7 -
25/09:00am 13.4 - - - - - - - - - 1029.0 1028.9 -
25/08:30am 12.6 - - - - - - - - - 1029.0 1028.9 -
25/08:00am 12.2 - - - - - - - - - 1029.2 1029.1 -
25/07:30am 11.8 - - - - - - - - - 1028.5 1028.4 -
25/07:00am 11.4 - - - - - - - - - 1028.1 1028.0 -
25/06:30am 11.2 - - - - - - - - - 1027.8 1027.7 -
25/06:00am 11.3 - - - - - - - - - 1027.8 1027.7 -
25/05:30am 11.4 - - - - - - - - - 1027.7 1027.6 -
25/05:00am 11.2 - - - - - - - - - 1027.4 1027.3 -
25/04:30am 11.7 - - - - - - - - - 1027.4 1027.3 -
25/04:00am 13.2 - - - - - - - - - 1027.3 1027.2 -
25/03:30am 15.0 - - - - - - - - - 1027.3 1027.2 -
25/03:00am 14.7 - - - - - - - - - 1027.3 1027.2 -
25/02:30am 14.5 - - - - - - - - - 1027.5 1027.4 -
25/02:00am 14.6 - - - - - - - - - 1027.7 1027.6 -
25/01:30am 14.2 - - - - - - - - - 1027.8 1027.7 -
25/01:00am 13.4 - - - - - - - - - 1027.8 1027.7 -
25/12:30am 13.7 - - - - - - - - - 1027.8 1027.7 -
25/12:00am 13.6 - - - - - - - - - 1028.0 1027.9 -
 
Date/Time
WST
Temp
°C
App
Temp
°C
Dew
Point
Rel
Hum
%
Delta-T
°C
Wind Press
QNH
hPa
Press
MSL
hPa
Rain
since 9 am
mm
Dir
 
Spd
km/h
Gust
km/h
Spd
kts
Gust
kts
24/11:30pm 14.6 - - - - - - - - - 1028.0 1027.9 -

Other Formats:

Comma delimited format used in spreadsheet applications
http://www.bom.gov.au/fwo/IDW60801/IDW60801.95648.axf

JavaScript Object Notation format (JSON) in row-major order
http://www.bom.gov.au/fwo/IDW60801/IDW60801.95648.json